Capt. Ted — WDD6210 — position and weather

sailwx.info

Track history (hours):
 
Tides and Currents Weather Stations Pressure Air Temp Water Temp Dewpoint Dewpoint Depression Visibility Wind Speed Wind Dir Waves Ship Positions

Capt. Ted

Owner: Salisbury Towing Corporation, Richmond, VA. More information available from US FCC via Universal Licensing System and Coast Guard Vessel Documentation Center.

Last reported at 2017-Jun-24 12:18 UTC. Time now 2017-Jun-25 02:03 UTC.
Position N 38°57' W 076°24'.

Length 32 m; draft 2.8 m.

Type: Tug. MMSI: 367169710.

Date/timePositionNaut miles runAvg speedWind from/ knotsBaromVisibWave heightAir tempDewpointWater temp
2017-Jun-24 12:18N 38°57' W 076°24'2 6.9
2017-Jun-24 11:59N 38°60' W 076°23'5 6.7
2017-Jun-24 11:16N 39°04' W 076°24'2 6.6
2017-Jun-24 10:58N 39°06' W 076°24'4 6.6
2017-Jun-24 10:24N 39°10' W 076°25'3 7.0
2017-Jun-24 10:00N 39°11' W 076°28'3 6.9
2017-Jun-24 09:30N 39°13' W 076°32'3 6.7
2017-Jun-24 09:00N 39°16' W 076°35'0 0.0
2017-Jun-24 08:30N 39°16' W 076°35'0 0.0
2017-Jun-24 08:00N 39°16' W 076°35'0 0.1
2017-Jun-24 07:30N 39°16' W 076°35'0 0.0
2017-Jun-24 07:00N 39°16' W 076°35'0 0.0
2017-Jun-24 06:30N 39°16' W 076°35'0 0.0
2017-Jun-24 06:00N 39°16' W 076°35'0 0.0
2017-Jun-24 05:30N 39°16' W 076°35'0 0.0
2017-Jun-24 05:00N 39°16' W 076°35'0 0.0
2017-Jun-24 04:30N 39°16' W 076°35'0 0.0
2017-Jun-24 04:00N 39°16' W 076°35'0 0.0
2017-Jun-24 03:30N 39°16' W 076°35'0 0.0
2017-Jun-24 03:00N 39°16' W 076°35'0 0.0
2017-Jun-24 02:30N 39°16' W 076°35'0 0.0
2017-Jun-24 02:00N 39°16' W 076°35'0 0.0
2017-Jun-24 01:30N 39°16' W 076°35'0 0.0
2017-Jun-24 01:00N 39°16' W 076°35'0 0.0
2017-Jun-24 00:30N 39°16' W 076°35'0 0.0
2017-Jun-24 00:00N 39°16' W 076°35'0 0.0
2017-Jun-23 23:30N 39°16' W 076°35'0 0.0
2017-Jun-23 23:00N 39°16' W 076°35'0 0.0
2017-Jun-23 22:30N 39°16' W 076°35'0 0.0
2017-Jun-23 22:00N 39°16' W 076°35'0 0.0
2017-Jun-23 21:30N 39°16' W 076°35'0 0.0
2017-Jun-23 21:00N 39°16' W 076°35'0 0.0
2017-Jun-23 20:30N 39°16' W 076°35'0 0.0
2017-Jun-23 20:00N 39°16' W 076°35'0 0.0
2017-Jun-23 19:30N 39°16' W 076°35'0 0.0
2017-Jun-23 19:00N 39°16' W 076°35'0 0.9
2017-Jun-23 18:30N 39°15' W 076°35'2 2.1
2017-Jun-23 17:34N 39°14' W 076°34'0 0.0
2017-Jun-23 17:30N 39°14' W 076°34'0 0.0
2017-Jun-23 17:00N 39°14' W 076°34'1 2.7
2017-Jun-23 16:30N 39°15' W 076°34'1 2.9
2017-Jun-23 16:00N 39°16' W 076°35'3 5.2
2017-Jun-23 15:30N 39°14' W 076°33'3 7.0
2017-Jun-23 15:00N 39°12' W 076°29'3 6.3
2017-Jun-23 14:30N 39°11' W 076°25'17 5.9
2017-Jun-23 11:36N 39°22' W 076°08'1 5.3
2017-Jun-23 11:24N 39°23' W 076°07'2 5.6
2017-Jun-23 11:00N 39°24' W 076°04'3 5.4
2017-Jun-23 10:30N 39°26' W 076°02'3 5.3
2017-Jun-23 10:00N 39°28' W 076°03'3 5.0
2017-Jun-23 09:30N 39°30' W 076°05'3 5.2
2017-Jun-23 09:00N 39°33' W 076°04'2 3.7
2017-Jun-23 08:30N 39°34' W 076°06'3 6.5
2017-Jun-23 08:00N 39°31' W 076°05'4 7.2
2017-Jun-23 07:30N 39°28' W 076°03'4 7.5
2017-Jun-23 07:00N 39°24' W 076°03'4 7.8
2017-Jun-23 06:30N 39°22' W 076°08'4 7.6
2017-Jun-23 05:59N 39°20' W 076°12'3 7.1
2017-Jun-23 05:30N 39°17' W 076°13'4 7.2
2017-Jun-23 05:00N 39°13' W 076°15'4 7.2
2017-Jun-23 04:30N 39°11' W 076°18'4 7.3
2017-Jun-23 04:00N 39°07' W 076°20'4 7.6
2017-Jun-23 03:30N 39°04' W 076°21'4 7.6
2017-Jun-23 02:59N 38°60' W 076°23'4 7.4
2017-Jun-23 02:30N 38°56' W 076°24'4 7.6
2017-Jun-23 02:00N 38°53' W 076°25'3 0.1
2017-Jun-21 03:41N 38°50' W 076°27'2 6.2
2017-Jun-21 03:25N 38°52' W 076°26'4 6.5
2017-Jun-21 02:45N 38°56' W 076°25'2 6.9
2017-Jun-21 02:30N 38°57' W 076°24'4 7.1
2017-Jun-21 01:57N 39°01' W 076°22'3 7.0
2017-Jun-21 01:27N 39°05' W 076°21'3 6.9
2017-Jun-21 00:57N 39°08' W 076°20'18 6.4
2017-Jun-20 22:07N 39°23' W 076°06'1 6.3
2017-Jun-20 22:00N 39°23' W 076°06'3 5.9
2017-Jun-20 21:30N 39°25' W 076°03'3 5.6
2017-Jun-20 21:00N 39°28' W 076°03'3 5.9
2017-Jun-20 20:30N 39°30' W 076°05'3 6.5
2017-Jun-20 20:00N 39°33' W 076°05'2 3.0
2017-Jun-20 19:28N 39°34' W 076°06'0 0.0
2017-Jun-20 16:26N 39°34' W 076°06'0 0.0
2017-Jun-20 14:38N 39°34' W 076°06'0 0.0
2017-Jun-20 14:10N 39°34' W 076°06'0 0.0
2017-Jun-20 11:33N 39°34' W 076°06'0 0.0
2017-Jun-20 11:25N 39°34' W 076°06'0 0.0
2017-Jun-20 10:57N 39°34' W 076°06'0 0.0
2017-Jun-20 10:30N 39°34' W 076°06'0 0.1
2017-Jun-20 10:00N 39°34' W 076°06'0 0.0
2017-Jun-20 09:30N 39°34' W 076°06'0 0.0
2017-Jun-20 09:00N 39°34' W 076°06'0 0.0
2017-Jun-20 08:30N 39°34' W 076°06'0 0.0
2017-Jun-20 08:00N 39°34' W 076°06'0 0.0
2017-Jun-20 07:30N 39°34' W 076°06'0 0.0
2017-Jun-20 07:00N 39°34' W 076°06'0 0.0
2017-Jun-20 06:30N 39°34' W 076°06'0 0.0
2017-Jun-20 06:00N 39°34' W 076°06'0 0.0
2017-Jun-20 05:30N 39°34' W 076°06'0 0.0
2017-Jun-20 05:00N 39°34' W 076°06'0 0.0
2017-Jun-20 04:30N 39°34' W 076°06'0 0.0
2017-Jun-20 04:00N 39°34' W 076°06'0 0.0
2017-Jun-20 03:30N 39°34' W 076°06'0 0.0
2017-Jun-20 03:00N 39°34' W 076°06'0 0.0
2017-Jun-20 02:30N 39°34' W 076°06'0 0.0
2017-Jun-20 01:59N 39°34' W 076°06'0 0.0
2017-Jun-20 01:30N 39°34' W 076°06'0 0.0
2017-Jun-20 01:00N 39°34' W 076°06'0 0.0
2017-Jun-20 00:30N 39°34' W 076°06'0 0.0
2017-Jun-20 00:00N 39°34' W 076°06'0 0.0
2017-Jun-19 22:56N 39°34' W 076°06'0 0.0
2017-Jun-19 21:22N 39°34' W 076°06'0 0.1
2017-Jun-19 21:00N 39°34' W 076°06'0 0.0
2017-Jun-19 20:30N 39°34' W 076°06'0 0.0
2017-Jun-19 20:00N 39°34' W 076°06'0 0.0
2017-Jun-19 19:26N 39°34' W 076°06'0 0.0
2017-Jun-19 19:00N 39°34' W 076°06'2 4.9
2017-Jun-19 18:30N 39°32' W 076°05'3 6.8
2017-Jun-19 18:01N 39°29' W 076°04'4 7.8
2017-Jun-19 17:30N 39°25' W 076°02'4 8.5
2017-Jun-19 17:01N 39°23' W 076°07'4 8.7
2017-Jun-19 16:31N 39°20' W 076°11'3 6.4
2017-Jun-19 15:59N 39°17' W 076°13'10 6.6
2017-Jun-19 14:25N 39°10' W 076°22'7 8.0
2017-Jun-19 13:30N 39°12' W 076°31'1 2.9
2017-Jun-19 13:00N 39°13' W 076°33'1 2.5
2017-Jun-19 12:30N 39°14' W 076°34'0 0.0
2017-Jun-19 12:00N 39°14' W 076°34'0 0.0
2017-Jun-19 11:30N 39°14' W 076°34'0 0.0
2017-Jun-19 11:00N 39°14' W 076°34'1 2.5
2017-Jun-19 10:30N 39°13' W 076°33'0 0.0
2017-Jun-19 10:00N 39°13' W 076°33'0 0.0
2017-Jun-19 09:30N 39°13' W 076°33'0 0.0
2017-Jun-19 09:00N 39°13' W 076°33'0 0.0
2017-Jun-19 08:30N 39°13' W 076°33'0 0.0
2017-Jun-19 08:00N 39°13' W 076°33'0 0.0
2017-Jun-19 07:30N 39°13' W 076°33'0 0.0
2017-Jun-19 07:00N 39°13' W 076°33'0 0.0
2017-Jun-19 06:30N 39°13' W 076°33'0 0.0
2017-Jun-19 06:00N 39°13' W 076°33'0 0.0
2017-Jun-19 05:30N 39°13' W 076°33'0 0.0
2017-Jun-19 05:00N 39°13' W 076°33'0 0.0
2017-Jun-19 04:30N 39°13' W 076°33'0 0.0
2017-Jun-19 04:00N 39°13' W 076°33'0 0.0
2017-Jun-19 03:30N 39°13' W 076°33'0 0.0
2017-Jun-19 03:00N 39°13' W 076°33'0 0.0
2017-Jun-19 02:30N 39°13' W 076°33'0 0.0
2017-Jun-19 02:00N 39°13' W 076°33'0 0.0
2017-Jun-19 01:30N 39°13' W 076°33'0 0.0
2017-Jun-19 01:00N 39°13' W 076°33'0 0.0
2017-Jun-19 00:30N 39°13' W 076°33'0 0.0
2017-Jun-19 00:00N 39°13' W 076°33'0 0.3
2017-Jun-18 23:29N 39°13' W 076°33'2 3.9
2017-Jun-18 23:00N 39°12' W 076°31'4 8.1
2017-Jun-18 22:30N 39°10' W 076°26'4 7.7
2017-Jun-18 22:00N 39°07' W 076°24'66 8.0
2017-Jun-18 13:43N 38°01' W 076°19'2 8.6
2017-Jun-18 13:28N 38°02' W 076°22'5 8.3
2017-Jun-18 12:51N 38°04' W 076°27'4 8.1
2017-Jun-18 12:22N 38°07' W 076°31'2 0.1
2017-Jun-17 18:16N 38°07' W 076°33'2 6.8
2017-Jun-17 17:58N 38°06' W 076°31'4 6.8
2017-Jun-17 17:27N 38°04' W 076°28'4 6.9
2017-Jun-17 16:54N 38°01' W 076°24'15 0.5
2017-Jun-16 12:04N 38°16' W 076°19'1 6.3
2017-Jun-16 11:54N 38°17' W 076°19'3 5.9
2017-Jun-16 11:27N 38°19' W 076°20'3 5.8
2017-Jun-16 10:58N 38°22' W 076°21'3 5.8
2017-Jun-16 10:22N 38°25' W 076°23'4 6.1
2017-Jun-16 09:47N 38°28' W 076°24'6 6.3
2017-Jun-16 08:47N 38°34' W 076°28'16 6.6
2017-Jun-16 06:17N 38°51' W 076°26'5 6.4
2017-Jun-16 05:28N 38°56' W 076°24'3 6.4
2017-Jun-16 05:00N 38°59' W 076°23'3 6.1
2017-Jun-16 04:30N 39°01' W 076°22'4 5.9
2017-Jun-16 03:52N 39°05' W 076°21'2 5.6
2017-Jun-16 03:30N 39°07' W 076°20'3 5.5
2017-Jun-16 02:59N 39°10' W 076°19'3 5.7
2017-Jun-16 02:30N 39°12' W 076°16'9 6.0
2017-Jun-16 00:55N 39°20' W 076°11'1 1.8
2017-Jun-16 00:29N 39°21' W 076°11'2 4.6
2017-Jun-16 00:00N 39°19' W 076°13'12 7.3
2017-Jun-15 22:19N 39°08' W 076°20'4 8.2
2017-Jun-15 21:49N 39°04' W 076°21'3 8.1
2017-Jun-15 21:30N 39°02' W 076°22'54 6.5
2017-Jun-15 13:18N 38°12' W 075°56'5 7.6
2017-Jun-15 12:42N 38°15' W 075°51'3 7.1
2017-Jun-15 12:14N 38°16' W 075°47'2 7.2
2017-Jun-15 12:00N 38°17' W 075°46'3 6.0
2017-Jun-15 11:30N 38°20' W 075°44'5 5.0
2017-Jun-15 10:24N 38°21' W 075°37'0 1.0
2017-Jun-15 09:55N 38°21' W 075°37'0 0.0
2017-Jun-15 09:12N 38°21' W 075°37'1 3.7
2017-Jun-15 08:49N 38°20' W 075°38'1 4.3
2017-Jun-15 08:30N 38°20' W 075°40'2 3.9
2017-Jun-15 07:58N 38°20' W 075°43'2 3.6
2017-Jun-15 07:31N 38°19' W 075°44'2 4.1
2017-Jun-15 07:00N 38°18' W 075°46'2 4.9
2017-Jun-15 06:30N 38°16' W 075°48'2 4.7
2017-Jun-15 06:00N 38°15' W 075°51'2 5.0
2017-Jun-15 05:30N 38°13' W 075°52'6 1.4
2017-Jun-15 01:19N 38°19' W 075°55'  
Track history (hours):
 
Tides and Currents Weather Stations Pressure Air Temp Water Temp Dewpoint Dewpoint Depression Visibility Wind Speed Wind Dir Waves Ship Positions

Capt. Ted

Owner: Salisbury Towing Corporation, Richmond, VA. More information available from US FCC via Universal Licensing System and Coast Guard Vessel Documentation Center.

Last reported at 2017-Jun-24 12:18 UTC. Time now 2017-Jun-25 02:03 UTC.
Position N 38°57' W 076°24'.

Length 32 m; draft 2.8 m.

Type: Tug. MMSI: 367169710.

Date/timePositionNaut miles runAvg speedWind from/ knotsBaromVisibWave heightAir tempDewpointWater temp
2017-Jun-24 12:18N 38°57' W 076°24'2 6.9
2017-Jun-24 11:59N 38°60' W 076°23'5 6.7
2017-Jun-24 11:16N 39°04' W 076°24'2 6.6
2017-Jun-24 10:58N 39°06' W 076°24'4 6.6
2017-Jun-24 10:24N 39°10' W 076°25'3 7.0
2017-Jun-24 10:00N 39°11' W 076°28'3 6.9
2017-Jun-24 09:30N 39°13' W 076°32'3 6.7
2017-Jun-24 09:00N 39°16' W 076°35'0 0.0
2017-Jun-24 08:30N 39°16' W 076°35'0 0.0
2017-Jun-24 08:00N 39°16' W 076°35'0 0.1
2017-Jun-24 07:30N 39°16' W 076°35'0 0.0
2017-Jun-24 07:00N 39°16' W 076°35'0 0.0
2017-Jun-24 06:30N 39°16' W 076°35'0 0.0
2017-Jun-24 06:00N 39°16' W 076°35'0 0.0
2017-Jun-24 05:30N 39°16' W 076°35'0 0.0
2017-Jun-24 05:00N 39°16' W 076°35'0 0.0
2017-Jun-24 04:30N 39°16' W 076°35'0 0.0
2017-Jun-24 04:00N 39°16' W 076°35'0 0.0
2017-Jun-24 03:30N 39°16' W 076°35'0 0.0
2017-Jun-24 03:00N 39°16' W 076°35'0 0.0
2017-Jun-24 02:30N 39°16' W 076°35'0 0.0
2017-Jun-24 02:00N 39°16' W 076°35'0 0.0
2017-Jun-24 01:30N 39°16' W 076°35'0 0.0
2017-Jun-24 01:00N 39°16' W 076°35'0 0.0
2017-Jun-24 00:30N 39°16' W 076°35'0 0.0
2017-Jun-24 00:00N 39°16' W 076°35'0 0.0
2017-Jun-23 23:30N 39°16' W 076°35'0 0.0
2017-Jun-23 23:00N 39°16' W 076°35'0 0.0
2017-Jun-23 22:30N 39°16' W 076°35'0 0.0
2017-Jun-23 22:00N 39°16' W 076°35'0 0.0
2017-Jun-23 21:30N 39°16' W 076°35'0 0.0
2017-Jun-23 21:00N 39°16' W 076°35'0 0.0
2017-Jun-23 20:30N 39°16' W 076°35'0 0.0
2017-Jun-23 20:00N 39°16' W 076°35'0 0.0
2017-Jun-23 19:30N 39°16' W 076°35'0 0.0
2017-Jun-23 19:00N 39°16' W 076°35'0 0.9
2017-Jun-23 18:30N 39°15' W 076°35'2 2.1
2017-Jun-23 17:34N 39°14' W 076°34'0 0.0
2017-Jun-23 17:30N 39°14' W 076°34'0 0.0
2017-Jun-23 17:00N 39°14' W 076°34'1 2.7
2017-Jun-23 16:30N 39°15' W 076°34'1 2.9
2017-Jun-23 16:00N 39°16' W 076°35'3 5.2
2017-Jun-23 15:30N 39°14' W 076°33'3 7.0
2017-Jun-23 15:00N 39°12' W 076°29'3 6.3
2017-Jun-23 14:30N 39°11' W 076°25'17 5.9
2017-Jun-23 11:36N 39°22' W 076°08'1 5.3
2017-Jun-23 11:24N 39°23' W 076°07'2 5.6
2017-Jun-23 11:00N 39°24' W 076°04'3 5.4
2017-Jun-23 10:30N 39°26' W 076°02'3 5.3
2017-Jun-23 10:00N 39°28' W 076°03'3 5.0
2017-Jun-23 09:30N 39°30' W 076°05'3 5.2
2017-Jun-23 09:00N 39°33' W 076°04'2 3.7
2017-Jun-23 08:30N 39°34' W 076°06'3 6.5
2017-Jun-23 08:00N 39°31' W 076°05'4 7.2
2017-Jun-23 07:30N 39°28' W 076°03'4 7.5
2017-Jun-23 07:00N 39°24' W 076°03'4 7.8
2017-Jun-23 06:30N 39°22' W 076°08'4 7.6
2017-Jun-23 05:59N 39°20' W 076°12'3 7.1
2017-Jun-23 05:30N 39°17' W 076°13'4 7.2
2017-Jun-23 05:00N 39°13' W 076°15'4 7.2
2017-Jun-23 04:30N 39°11' W 076°18'4 7.3
2017-Jun-23 04:00N 39°07' W 076°20'4 7.6
2017-Jun-23 03:30N 39°04' W 076°21'4 7.6
2017-Jun-23 02:59N 38°60' W 076°23'4 7.4
2017-Jun-23 02:30N 38°56' W 076°24'4 7.6
2017-Jun-23 02:00N 38°53' W 076°25'3 0.1
2017-Jun-21 03:41N 38°50' W 076°27'2 6.2
2017-Jun-21 03:25N 38°52' W 076°26'4 6.5
2017-Jun-21 02:45N 38°56' W 076°25'2 6.9
2017-Jun-21 02:30N 38°57' W 076°24'4 7.1
2017-Jun-21 01:57N 39°01' W 076°22'3 7.0
2017-Jun-21 01:27N 39°05' W 076°21'3 6.9
2017-Jun-21 00:57N 39°08' W 076°20'18 6.4
2017-Jun-20 22:07N 39°23' W 076°06'1 6.3
2017-Jun-20 22:00N 39°23' W 076°06'3 5.9
2017-Jun-20 21:30N 39°25' W 076°03'3 5.6
2017-Jun-20 21:00N 39°28' W 076°03'3 5.9
2017-Jun-20 20:30N 39°30' W 076°05'3 6.5
2017-Jun-20 20:00N 39°33' W 076°05'2 3.0
2017-Jun-20 19:28N 39°34' W 076°06'0 0.0
2017-Jun-20 16:26N 39°34' W 076°06'0 0.0
2017-Jun-20 14:38N 39°34' W 076°06'0 0.0
2017-Jun-20 14:10N 39°34' W 076°06'0 0.0
2017-Jun-20 11:33N 39°34' W 076°06'0 0.0
2017-Jun-20 11:25N 39°34' W 076°06'0 0.0
2017-Jun-20 10:57N 39°34' W 076°06'0 0.0
2017-Jun-20 10:30N 39°34' W 076°06'0 0.1
2017-Jun-20 10:00N 39°34' W 076°06'0 0.0
2017-Jun-20 09:30N 39°34' W 076°06'0 0.0
2017-Jun-20 09:00N 39°34' W 076°06'0 0.0
2017-Jun-20 08:30N 39°34' W 076°06'0 0.0
2017-Jun-20 08:00N 39°34' W 076°06'0 0.0
2017-Jun-20 07:30N 39°34' W 076°06'0 0.0
2017-Jun-20 07:00N 39°34' W 076°06'0 0.0
2017-Jun-20 06:30N 39°34' W 076°06'0 0.0
2017-Jun-20 06:00N 39°34' W 076°06'0 0.0
2017-Jun-20 05:30N 39°34' W 076°06'0 0.0
2017-Jun-20 05:00N 39°34' W 076°06'0 0.0
2017-Jun-20 04:30N 39°34' W 076°06'0 0.0
2017-Jun-20 04:00N 39°34' W 076°06'0 0.0
2017-Jun-20 03:30N 39°34' W 076°06'0 0.0
2017-Jun-20 03:00N 39°34' W 076°06'0 0.0
2017-Jun-20 02:30N 39°34' W 076°06'0 0.0
2017-Jun-20 01:59N 39°34' W 076°06'0 0.0
2017-Jun-20 01:30N 39°34' W 076°06'0 0.0
2017-Jun-20 01:00N 39°34' W 076°06'0 0.0
2017-Jun-20 00:30N 39°34' W 076°06'0 0.0
2017-Jun-20 00:00N 39°34' W 076°06'0 0.0
2017-Jun-19 22:56N 39°34' W 076°06'0 0.0
2017-Jun-19 21:22N 39°34' W 076°06'0 0.1
2017-Jun-19 21:00N 39°34' W 076°06'0 0.0
2017-Jun-19 20:30N 39°34' W 076°06'0 0.0
2017-Jun-19 20:00N 39°34' W 076°06'0 0.0
2017-Jun-19 19:26N 39°34' W 076°06'0 0.0
2017-Jun-19 19:00N 39°34' W 076°06'2 4.9
2017-Jun-19 18:30N 39°32' W 076°05'3 6.8
2017-Jun-19 18:01N 39°29' W 076°04'4 7.8
2017-Jun-19 17:30N 39°25' W 076°02'4 8.5
2017-Jun-19 17:01N 39°23' W 076°07'4 8.7
2017-Jun-19 16:31N 39°20' W 076°11'3 6.4
2017-Jun-19 15:59N 39°17' W 076°13'10 6.6
2017-Jun-19 14:25N 39°10' W 076°22'7 8.0
2017-Jun-19 13:30N 39°12' W 076°31'1 2.9
2017-Jun-19 13:00N 39°13' W 076°33'1 2.5
2017-Jun-19 12:30N 39°14' W 076°34'0 0.0
2017-Jun-19 12:00N 39°14' W 076°34'0 0.0
2017-Jun-19 11:30N 39°14' W 076°34'0 0.0
2017-Jun-19 11:00N 39°14' W 076°34'1 2.5
2017-Jun-19 10:30N 39°13' W 076°33'0 0.0
2017-Jun-19 10:00N 39°13' W 076°33'0 0.0
2017-Jun-19 09:30N 39°13' W 076°33'0 0.0
2017-Jun-19 09:00N 39°13' W 076°33'0 0.0
2017-Jun-19 08:30N 39°13' W 076°33'0 0.0
2017-Jun-19 08:00N 39°13' W 076°33'0 0.0
2017-Jun-19 07:30N 39°13' W 076°33'0 0.0
2017-Jun-19 07:00N 39°13' W 076°33'0 0.0
2017-Jun-19 06:30N 39°13' W 076°33'0 0.0
2017-Jun-19 06:00N 39°13' W 076°33'0 0.0
2017-Jun-19 05:30N 39°13' W 076°33'0 0.0
2017-Jun-19 05:00N 39°13' W 076°33'0 0.0
2017-Jun-19 04:30N 39°13' W 076°33'0 0.0
2017-Jun-19 04:00N 39°13' W 076°33'0 0.0
2017-Jun-19 03:30N 39°13' W 076°33'0 0.0
2017-Jun-19 03:00N 39°13' W 076°33'0 0.0
2017-Jun-19 02:30N 39°13' W 076°33'0 0.0
2017-Jun-19 02:00N 39°13' W 076°33'0 0.0
2017-Jun-19 01:30N 39°13' W 076°33'0 0.0
2017-Jun-19 01:00N 39°13' W 076°33'0 0.0
2017-Jun-19 00:30N 39°13' W 076°33'0 0.0
2017-Jun-19 00:00N 39°13' W 076°33'0 0.3
2017-Jun-18 23:29N 39°13' W 076°33'2 3.9
2017-Jun-18 23:00N 39°12' W 076°31'4 8.1
2017-Jun-18 22:30N 39°10' W 076°26'4 7.7
2017-Jun-18 22:00N 39°07' W 076°24'66 8.0
2017-Jun-18 13:43N 38°01' W 076°19'2 8.6
2017-Jun-18 13:28N 38°02' W 076°22'5 8.3
2017-Jun-18 12:51N 38°04' W 076°27'4 8.1
2017-Jun-18 12:22N 38°07' W 076°31'2 0.1
2017-Jun-17 18:16N 38°07' W 076°33'2 6.8
2017-Jun-17 17:58N 38°06' W 076°31'4 6.8
2017-Jun-17 17:27N 38°04' W 076°28'4 6.9
2017-Jun-17 16:54N 38°01' W 076°24'15 0.5
2017-Jun-16 12:04N 38°16' W 076°19'1 6.3
2017-Jun-16 11:54N 38°17' W 076°19'3 5.9
2017-Jun-16 11:27N 38°19' W 076°20'3 5.8
2017-Jun-16 10:58N 38°22' W 076°21'3 5.8
2017-Jun-16 10:22N 38°25' W 076°23'4 6.1
2017-Jun-16 09:47N 38°28' W 076°24'6 6.3
2017-Jun-16 08:47N 38°34' W 076°28'16 6.6
2017-Jun-16 06:17N 38°51' W 076°26'5 6.4
2017-Jun-16 05:28N 38°56' W 076°24'3 6.4
2017-Jun-16 05:00N 38°59' W 076°23'3 6.1
2017-Jun-16 04:30N 39°01' W 076°22'4 5.9
2017-Jun-16 03:52N 39°05' W 076°21'2 5.6
2017-Jun-16 03:30N 39°07' W 076°20'3 5.5
2017-Jun-16 02:59N 39°10' W 076°19'3 5.7
2017-Jun-16 02:30N 39°12' W 076°16'9 6.0
2017-Jun-16 00:55N 39°20' W 076°11'1 1.8
2017-Jun-16 00:29N 39°21' W 076°11'2 4.6
2017-Jun-16 00:00N 39°19' W 076°13'12 7.3
2017-Jun-15 22:19N 39°08' W 076°20'4 8.2
2017-Jun-15 21:49N 39°04' W 076°21'3 8.1
2017-Jun-15 21:30N 39°02' W 076°22'54 6.5
2017-Jun-15 13:18N 38°12' W 075°56'5 7.6
2017-Jun-15 12:42N 38°15' W 075°51'3 7.1
2017-Jun-15 12:14N 38°16' W 075°47'2 7.2
2017-Jun-15 12:00N 38°17' W 075°46'3 6.0
2017-Jun-15 11:30N 38°20' W 075°44'5 5.0
2017-Jun-15 10:24N 38°21' W 075°37'0 1.0
2017-Jun-15 09:55N 38°21' W 075°37'0 0.0
2017-Jun-15 09:12N 38°21' W 075°37'1 3.7
2017-Jun-15 08:49N 38°20' W 075°38'1 4.3
2017-Jun-15 08:30N 38°20' W 075°40'2 3.9
2017-Jun-15 07:58N 38°20' W 075°43'2 3.6
2017-Jun-15 07:31N 38°19' W 075°44'2 4.1
2017-Jun-15 07:00N 38°18' W 075°46'2 4.9
2017-Jun-15 06:30N 38°16' W 075°48'2 4.7
2017-Jun-15 06:00N 38°15' W 075°51'2 5.0
2017-Jun-15 05:30N 38°13' W 075°52'6 1.4
2017-Jun-15 01:19N 38°19' W 075°55'  

Dump ship's entire track history